Rok Bijol

Recruteur en chef - NK Celje
19 Nov 2028
Dimanche
Processus

Personnalité

Adaptabilité (17) Ambition (8) Controverse (12) Loyauté (12) Pression (13) Professionnalisme (12) Sportivité (10) Tempérament (17)

Profil

Style d'entraînement Démocratique
Diplôme Continental C
Détermination 3
Gestion des joueurs 5
Motivation 11
Discipline 4
Satisfaction professionnelle
100%
Fatigue
0%
Rôle Recruteur en chef
Salaire 32.1K p/s
Contrat 14.03.2029

Performance

Comportement Bon
Efficacité de l'entraînement
46%
Développement des joueurs
15%
Prévention des blessures
25%
Mise en place tactique
45%

Événements récents

A participé à une réunion de recrutement maintenant
A participé à une réunion de recrutement maintenant
A participé à une réunion de recrutement 7j
A participé à une réunion de recrutement 7j
A recommandé une cible de transfert 7j
A recommandé une cible de transfert 7j
A recommandé une cible de transfert 14j
A recommandé une cible de transfert 14j

Suivi en cours

122
Joueur Club Statut Capacité Confiance Observé Dernière observation Dernier vote
Filip Bačkulja Koper Actif 103 / 106 58% 1 24.07.2028 -
Dato Mchedlidze Tskhinvali Perdu 100 / 104 89% 1 01.06.2028 -
Isaac Matondo Koper Perdu 109 / 109 69% 1 01.06.2028 -
Celías Ingenthron Platense Actif 127 / 116 40% 3 25.04.2028 -
Andrey Ivlev Nizhniy Novgorod Actif 110 / 119 40% 3 25.04.2028 -
Mirza Ćatović VfB Stuttgart Actif 120 / 133 40% 3 22.04.2028 -
Nejc Brekalo NK Domzale Actif 96 / 104 40% 2 19.04.2028 -
Riquelme Thompson-Jones Accrington Stanley Actif 115 / 109 40% 1 18.04.2028 -
Matvey Zakharzhevskiy Legion Actif 77 / 80 40% 1 19.03.2028 -
Victor Hernandez Santa Fe Actif 129 / 136 40% 2 14.03.2028 -
Makar Vysochenko Spartak Moscow Actif 92 / 89 40% 3 14.03.2028 -
Björn Hedlöf Helsingborg Actif 110 / 105 40% 2 11.03.2028 -
Artem Nosachev Spartak Moscow Actif 87 / 87 40% 2 11.03.2028 -
Luca Gobbo Bra Actif 83 / 98 40% 3 10.03.2028 -
Dmitry Zheltukhin Tver Actif 82 / 72 40% 1 10.03.2028 -
Abubakar Adams Aduana Stars Actif 76 / 86 40% 3 09.03.2028 -
Nicolò Moranduzzo Renate Actif 75 / 96 40% 1 09.03.2028 -
David Blanc Le Havre AC Actif 107 / 123 40% 1 06.03.2028 -
Nazareno Roselli Defensa y Justicia Actif 123 / 128 40% 1 06.03.2028 -
Matvey Bardachev Zenit Actif 105 / 117 40% 2 22.02.2028 -
Colin Guske Orlando City Actif 95 / 90 40% 1 21.02.2028 -
Miguel Figueiredo Benfica Actif 104 / 118 40% 1 21.02.2028 -
Zane Albarus Shrewsbury Town Actif 107 / 115 40% 2 20.02.2028 -
Martim Cunha Porto Actif 94 / 115 40% 3 18.02.2028 -
Nicolas Sport Recife Actif 105 / 102 40% 1 18.02.2028 -
Tian Varmaz Plava NK Zavrc Actif 102 / 102 40% 2 17.02.2028 -
Jon Esenga IF Elfsborg Actif 107 / 110 40% 1 15.02.2028 -
Ianis Marin Pandurii Actif 92 / 103 40% 2 12.02.2028 -
Tobías Ramírez River Plate Actif 128 / 120 40% 1 09.02.2028 -
Jenson Jones Walsall Actif 92 / 109 40% 1 05.02.2028 -
Diego Vargas Universidad de Concepcion Actif 88 / 105 40% 2 02.02.2028 -
Tiago Gordillo San Miguel Actif 82 / 89 40% 1 01.02.2028 -
Malte Hallin GIF Sundsvall Actif 104 / 88 40% 1 01.02.2028 -
Stanislav Bukatov Salyut Actif 81 / 79 40% 1 25.01.2028 -
Jan Cedilnik Chikhura Actif 79 / 88 40% 1 23.01.2028 -
Eko Solomon Leixões Actif 94 / 96 40% 1 22.01.2028 -
Snyder Brunell Seattle Sounders Actif 94 / 90 40% 1 21.01.2028 -
Gael Moreno Morelia Actif 62 / 84 40% 1 21.01.2028 -
Agustín Obregón River Plate Actif 97 / 116 40% 1 20.01.2028 -
Alessio Insignito Spezia Actif 100 / 105 40% 1 17.01.2028 -
Jakub Adkonis Korona Actif 102 / 103 40% 1 14.01.2028 -
Åke Andersson IFK Norrkoping Actif 74 / 95 40% 1 14.01.2028 -
Maxim Radchenko Rostov Actif 88 / 97 40% 1 13.01.2028 -
Aiden Hezarkhani Real Salt Lake Actif 100 / 92 40% 1 12.01.2028 -
Musa Danjuma Umraniyespor Actif 104 / 103 40% 1 05.01.2028 -
Denis Grigorjev Arsenal Tula Actif 91 / 88 40% 1 05.01.2028 -
Lucas Nicol Mjondalen Actif 76 / 83 40% 1 04.01.2028 -
Dato Chakvetadze Zugdidi Actif 103 / 93 40% 1 03.01.2028 -
Alejandro Rincon Llaneros Perdu 102 / 102 90% 1 01.01.2028 -
Shota Shekiladze Dila Actif 111 / 111 66% 1 01.01.2028 Approuver
Alejo Dramisino Atlanta Actif 123 / 119 40% 2 31.12.2027 -
Martín Campos Ferro Carril Oeste Actif 120 / 105 40% 5 30.12.2027 -
Gino Olguín Ferro Carril Oeste Actif 113 / 105 40% 1 29.12.2027 -
Algassime Bah Dinamo Tbilisi Actif 116 / 107 40% 3 28.12.2027 -
Luciano Riveros San Martín SJ Actif 119 / 115 40% 1 28.12.2027 -
Braian Aranda Agropecuario Argentino Actif 116 / 119 40% 1 25.12.2027 -
Alexander Díaz Deportivo Riestra Actif 133 / 121 40% 7 24.12.2027 -
Federico Versaci Talleres Actif 113 / 122 40% 3 23.12.2027 -
Facundo Taborda Racing Actif 102 / 118 40% 2 22.12.2027 -
Manuel Duarte Barracas Central Actif 137 / 108 40% 1 18.12.2027 -
Tobías Leiva Estudiantes Actif 117 / 123 40% 1 17.12.2027 -
Enzo Hoyos Ferro Carril Oeste Actif 120 / 122 40% 1 15.12.2027 -
Juan David Rueda Alianza Petrolera Actif 117 / 104 40% 5 14.12.2027 -
Yegor Kortsov Dinamo Brest Actif 122 / 114 40% 4 14.12.2027 -
Rodrigo Ramírez Nueva Chicago Actif 117 / 108 40% 2 14.12.2027 -
Patricio Moyano Defensores Actif 107 / 109 40% 3 13.12.2027 -
Nodar Lominadze Torpedo Kutaisi Actif 122 / 103 40% 1 13.12.2027 -
Iñaki Larthirigoyen San Telmo Actif 109 / 131 40% 2 12.12.2027 -
Enzo González Defensores Actif 93 / 107 40% 2 11.12.2027 -
Rodrigo González Mitre Actif 104 / 107 40% 5 09.12.2027 -
Johar Mejía Banfield Actif 129 / 119 40% 2 08.12.2027 -
José Barreto Quilmes Actif 112 / 119 40% 4 06.12.2027 -
Franco Díaz Temperley Actif 121 / 115 40% 3 06.12.2027 -
Elías Ayala Madryn Actif 100 / 107 40% 1 05.12.2027 -
Augusto Berrondo Tristán Suárez Actif 108 / 114 40% 6 04.12.2027 -
Matías Rosales Sarmiento Actif 99 / 125 40% 2 04.12.2027 -
Mauricio González Sporting Kansas City Actif 105 / 133 40% 3 01.12.2027 -
Tomás Ferreyra Defensores Unidos Actif 96 / 112 40% 1 01.12.2027 -
Diego Gaitán Maipú Actif 126 / 110 40% 2 30.11.2027 -
Facundo Lencioni Gimnasia y Esgrima Actif 105 / 113 40% 1 29.11.2027 -
Daniel Barrea Godoy Cruz Actif 130 / 116 40% 4 27.11.2027 -
Elías López Aldosivi Actif 126 / 111 40% 1 27.11.2027 -
Franco Ayunta Temperley Actif 94 / 116 40% 2 25.11.2027 -
Tomás Porra Barracas Central Actif 122 / 126 40% 1 24.11.2027 -
Guljigit Alykulov Dinamo Minsk Actif 106 / 103 40% 1 24.11.2027 -
Franco Hanashiro Colegiales Actif 122 / 107 40% 2 23.11.2027 -
Ramiro Ruiz Rodríguez Atlético Tucumán Actif 126 / 110 40% 1 23.11.2027 -
Jefry Zapata Aldosivi Actif 122 / 126 40% 2 19.11.2027 -
Marco Miori Alvarado Actif 117 / 113 40% 3 18.11.2027 -
Santiago Sala Güemes Actif 120 / 117 40% 2 17.11.2027 -
Santiago Guzmán Wanderers Actif 116 / 111 40% 1 13.11.2027 -
Alan López Mitre Actif 87 / 96 40% 1 11.11.2027 -
Manuel Mónaco Sarmiento Actif 112 / 113 40% 2 08.11.2027 -
Pedro Souto Temperley Actif 113 / 104 40% 1 08.11.2027 -
Blas Armoa Gimnasia y Esgrima Actif 111 / 124 40% 1 02.11.2027 -
Bruno Leyes Godoy Cruz Actif 118 / 133 40% 1 31.10.2027 -
Juan Rocca Gimnasia y Tiro Actif 120 / 109 40% 1 23.10.2027 -
Matías Machado Racing Actif 130 / 115 40% 1 23.10.2027 -
Ramón González Almirante Brown Actif 129 / 123 40% 3 21.10.2027 -
Sebastián Cocimano Nueva Chicago Actif 119 / 122 40% 1 18.10.2027 -
Franco Camargo Gimnasia y Esgrima Actif 119 / 98 40% 3 16.10.2027 -
Federico Bisanz Atlanta Actif 124 / 122 40% 2 16.10.2027 -
Matías Bergara Nueva Chicago Actif 101 / 116 40% 1 14.10.2027 -
Juan Velázquez Belgrano Actif 123 / 133 40% 1 12.10.2027 -
Mauro Valiente Estudiantes Actif 123 / 116 40% 1 07.10.2027 -
Johan Campaña Patriotas Actif 99 / 108 40% 1 05.10.2027 -
Favio Cabral Mitre Actif 102 / 126 40% 1 19.09.2027 -
Youssef Dalouzi Renaissance Actif 107 / 81 40% 1 15.09.2027 -
Gustavo Viera Cerro Largo Actif 83 / 107 40% 1 14.09.2027 -
Alexey Antilevskiy Slavia Mozyr Actif 98 / 84 40% 1 07.09.2027 -
Abubakar Bonni Enyimba Actif 88 / 98 40% 1 23.08.2027 -
Simone Ianesi Pianese Actif 119 / 97 40% 1 06.08.2027 -
Daniele Ferrandino Pergolettese Actif 75 / 86 40% 1 06.08.2027 -
Angelo Guida Siracusa Actif 91 / 95 40% 1 04.08.2027 -
Franco Vedoya Central Norte Actif 99 / 107 40% 1 03.08.2027 -
Ángelo Lucena Carabobo Actif 103 / 107 40% 1 03.08.2027 -
Josephat Lopaga Kakamega Homeboyz Actif 88 / 98 40% 1 26.07.2027 -
Alessio Nepi Perugia Actif 110 / 112 40% 1 26.07.2027 -
Marko Brest Olimpija Ljubljana Actif 122 / 128 55% 1 05.07.2027 -
Robert Hernández Carabobo Actif 113 / 113 66% 1 01.06.2027 Approuver
Riley Owen Stevenage Actif 120 / 115 40% 1 31.05.2027 -
Dino Kojić Olimpija Ljubljana Actif 96 / 109 51% 1 03.08.2026 Observer